createdAt,value
2023-03-10T00:00:49.493Z,480.00
2023-03-10T00:01:49.497Z,480.00
2023-03-10T00:02:49.610Z,481.00
2023-03-10T00:03:49.458Z,479.00
2023-03-10T00:04:49.528Z,478.00
2023-03-10T00:05:49.511Z,476.00
2023-03-10T00:06:49.457Z,476.00
2023-03-10T00:07:49.477Z,475.00
2023-03-10T00:09:05.852Z,475.00
2023-03-10T00:10:09.159Z,470.00
2023-03-10T00:11:11.656Z,463.00
2023-03-10T00:12:09.077Z,466.00
2023-03-10T00:13:09.100Z,469.00
2023-03-10T00:14:09.076Z,473.00
2023-03-10T00:15:09.071Z,475.00
2023-03-10T00:16:09.106Z,473.00
2023-03-10T00:17:09.064Z,474.00
2023-03-10T00:18:09.814Z,470.00
2023-03-10T00:19:10.014Z,468.00
2023-03-10T00:20:09.628Z,469.00
2023-03-10T00:21:10.003Z,469.00
2023-03-10T00:22:08.970Z,467.00
2023-03-10T00:23:10.115Z,467.00
2023-03-10T00:24:09.595Z,469.00
2023-03-10T00:25:09.975Z,468.00
2023-03-10T00:26:10.700Z,471.00
2023-03-10T00:27:09.981Z,467.00
2023-03-10T00:28:08.974Z,468.00
2023-03-10T00:29:08.925Z,468.00
2023-03-10T00:30:08.935Z,470.00
2023-03-10T00:31:09.001Z,468.00
2023-03-10T00:32:09.983Z,467.00
2023-03-10T00:33:08.964Z,468.00
2023-03-10T00:34:08.917Z,464.00
2023-03-10T00:35:08.893Z,461.00
2023-03-10T00:36:10.470Z,462.00
2023-03-10T00:37:08.892Z,463.00
2023-03-10T00:53:48.171Z,471.00
2023-03-10T00:54:48.175Z,473.00
2023-03-10T00:55:48.130Z,473.00
2023-03-10T00:56:48.169Z,475.00
2023-03-10T00:57:48.135Z,476.00
2023-03-10T00:58:48.154Z,478.00
2023-03-10T00:59:50.720Z,480.00
2023-03-10T01:00:48.197Z,479.00
2023-03-10T01:01:48.207Z,480.00
2023-03-10T01:02:48.131Z,481.00
2023-03-10T01:03:48.104Z,482.00
2023-03-10T01:04:48.157Z,482.00
2023-03-10T01:05:48.153Z,482.00
2023-03-10T01:06:48.067Z,482.00
2023-03-10T01:07:48.086Z,483.00
2023-03-10T01:08:48.065Z,483.00
2023-03-10T01:09:48.090Z,481.00
2023-03-10T01:10:48.084Z,480.00
2023-03-10T01:11:48.067Z,481.00
2023-03-10T01:12:48.040Z,482.00
2023-03-10T01:13:48.055Z,483.00
2023-03-10T01:14:48.066Z,483.00
2023-03-10T01:15:48.090Z,482.00
2023-03-10T01:16:48.022Z,482.00
2023-03-10T01:17:48.030Z,480.00
2023-03-10T01:18:48.034Z,477.00
2023-03-10T01:19:47.986Z,477.00
2023-03-10T01:20:48.005Z,478.00
2023-03-10T01:21:47.987Z,479.00
2023-03-10T01:22:47.992Z,479.00
2023-03-10T01:23:48.010Z,480.00
2023-03-10T01:26:08.059Z,476.00
2023-03-10T01:27:07.601Z,471.00
2023-03-10T01:28:07.608Z,470.00
2023-03-10T01:29:07.569Z,466.00
2023-03-10T01:30:07.651Z,468.00
2023-03-10T01:31:07.650Z,467.00
2023-03-10T01:32:07.567Z,466.00
2023-03-10T01:33:08.031Z,470.00
2023-03-10T01:34:08.024Z,470.00
2023-03-10T01:35:07.542Z,468.00
2023-03-10T01:36:07.606Z,467.00
2023-03-10T01:37:07.529Z,467.00
2023-03-10T01:38:07.501Z,469.00
2023-03-10T01:39:07.622Z,471.00
2023-03-10T01:40:07.484Z,470.00
2023-03-10T01:41:07.552Z,469.00
2023-03-10T01:42:07.499Z,470.00
2023-03-10T01:43:07.461Z,470.00
2023-03-10T01:44:07.510Z,473.00
2023-03-10T01:45:07.461Z,475.00
2023-03-10T01:46:07.593Z,474.00
2023-03-10T01:47:07.443Z,473.00
2023-03-10T01:48:07.461Z,473.00
2023-03-10T01:49:07.461Z,473.00
2023-03-10T01:50:07.411Z,471.00
2023-03-10T01:51:07.432Z,469.00
2023-03-10T01:52:07.415Z,470.00
2023-03-10T01:53:07.422Z,469.00
2023-03-10T01:54:07.464Z,469.00
2023-03-10T01:55:07.383Z,468.00
2023-03-10T01:56:07.398Z,468.00
2023-03-10T01:57:07.353Z,467.00
2023-03-10T01:58:07.359Z,467.00
2023-03-10T01:59:07.346Z,468.00
2023-03-10T02:00:07.368Z,469.00
2023-03-10T02:01:07.454Z,468.00
2023-03-10T02:02:07.447Z,470.00
2023-03-10T02:03:07.326Z,469.00
2023-03-10T02:04:07.372Z,469.00
2023-03-10T02:05:07.323Z,471.00
2023-03-10T02:06:07.362Z,471.00
2023-03-10T02:07:07.401Z,470.00
2023-03-10T02:08:07.400Z,471.00
2023-03-10T02:09:07.515Z,471.00
2023-03-10T02:10:07.581Z,471.00
2023-03-10T02:11:07.581Z,472.00
2023-03-10T02:13:09.345Z,469.00
2023-03-10T02:14:08.595Z,466.00
2023-03-10T02:15:09.216Z,465.00
2023-03-10T02:16:07.706Z,467.00
2023-03-10T02:17:07.590Z,466.00
2023-03-10T02:18:08.571Z,466.00
2023-03-10T02:19:10.342Z,467.00
2023-03-10T02:20:08.658Z,468.00
2023-03-10T02:22:07.667Z,471.00
2023-03-10T02:23:07.779Z,473.00
2023-03-10T02:24:07.864Z,473.00
2023-03-10T02:25:07.537Z,473.00
2023-03-10T02:26:07.506Z,472.00
2023-03-10T02:27:07.509Z,468.00
2023-03-10T02:28:07.694Z,466.00
2023-03-10T02:29:07.620Z,467.00
2023-03-10T02:30:07.490Z,467.00
2023-03-10T02:31:07.500Z,467.00
2023-03-10T02:32:07.475Z,465.00
2023-03-10T02:33:07.489Z,466.00
2023-03-10T02:34:07.488Z,467.00
2023-03-10T02:35:07.443Z,469.00
2023-03-10T02:36:07.464Z,470.00
2023-03-10T02:37:07.447Z,470.00
2023-03-10T02:38:07.404Z,469.00
2023-03-10T02:39:07.430Z,468.00
2023-03-10T02:40:07.432Z,469.00
2023-03-10T02:41:07.388Z,468.00
2023-03-10T02:42:07.400Z,468.00
2023-03-10T02:43:07.400Z,471.00
2023-03-10T02:44:07.416Z,467.00
2023-03-10T02:45:07.415Z,471.00
2023-03-10T02:46:07.397Z,468.00
2023-03-10T02:47:07.376Z,472.00
2023-03-10T02:48:07.392Z,468.00
2023-03-10T02:49:07.340Z,469.00
2023-03-10T02:50:07.346Z,469.00
2023-03-10T02:51:07.336Z,468.00
2023-03-10T02:52:07.290Z,467.00
2023-03-10T02:53:07.303Z,468.00
2023-03-10T02:54:07.311Z,469.00
2023-03-10T02:55:07.344Z,472.00
2023-03-10T02:56:07.400Z,473.00
2023-03-10T02:57:07.409Z,471.00
2023-03-10T02:58:07.432Z,472.00
2023-03-10T02:59:07.456Z,472.00
2023-03-10T03:00:07.471Z,472.00
2023-03-10T03:01:07.521Z,471.00
2023-03-10T03:02:07.480Z,467.00
2023-03-10T03:03:07.477Z,467.00
2023-03-10T03:05:30.593Z,466.00
2023-03-10T03:39:48.438Z,458.00
2023-03-10T03:42:06.967Z,452.00
2023-03-10T03:44:07.991Z,452.00
2023-03-10T03:49:48.402Z,452.00
2023-03-10T03:52:06.622Z,451.00
2023-03-10T03:53:06.620Z,460.00
2023-03-10T03:54:06.565Z,456.00
2023-03-10T03:55:06.568Z,457.00
2023-03-10T03:56:06.492Z,458.00
2023-03-10T03:57:06.524Z,456.00
2023-03-10T04:04:06.332Z,468.00
2023-03-10T04:05:06.121Z,454.00
2023-03-10T04:06:06.274Z,453.00
2023-03-10T05:05:11.726Z,457.00
2023-03-10T05:06:08.408Z,452.00
2023-03-10T05:15:25.298Z,455.00
2023-03-10T05:16:25.320Z,456.00
2023-03-10T05:17:25.290Z,454.00
2023-03-10T05:18:25.341Z,456.00
2023-03-10T05:19:25.306Z,458.00
2023-03-10T05:20:25.321Z,462.00
2023-03-10T05:21:25.284Z,463.00
2023-03-10T05:22:25.275Z,461.00
2023-03-10T05:23:25.285Z,459.00
2023-03-10T05:24:25.271Z,462.00
2023-03-10T05:25:25.279Z,464.00
2023-03-10T05:26:25.280Z,462.00
2023-03-10T05:27:25.288Z,464.00
2023-03-10T05:28:25.341Z,464.00
2023-03-10T05:29:25.403Z,467.00
2023-03-10T05:32:01.168Z,450.00
2023-03-10T05:35:05.625Z,462.00
2023-03-10T05:36:06.631Z,461.00
2023-03-10T05:37:05.302Z,462.00
2023-03-10T05:38:05.376Z,462.00
2023-03-10T05:39:05.289Z,461.00
2023-03-10T05:40:05.301Z,457.00
2023-03-10T05:41:09.051Z,457.00
2023-03-10T05:42:07.323Z,459.00
2023-03-10T05:44:25.514Z,449.00
2023-03-10T05:45:25.680Z,449.00
2023-03-10T05:46:25.462Z,451.00
2023-03-10T05:47:25.431Z,453.00
2023-03-10T05:48:25.402Z,455.00
2023-03-10T06:00:46.051Z,453.00
2023-03-10T06:37:38.114Z,469.00
2023-03-10T06:38:40.263Z,473.00
2023-03-10T06:39:39.142Z,475.00
2023-03-10T06:40:38.114Z,475.00
2023-03-10T06:45:15.381Z,461.00
2023-03-10T06:46:31.548Z,461.00
2023-03-10T06:47:15.823Z,461.00
2023-03-10T06:48:15.351Z,463.00
2023-03-10T06:49:16.169Z,465.00
2023-03-10T06:50:15.346Z,469.00
2023-03-10T06:51:15.280Z,469.00
2023-03-10T06:52:15.294Z,470.00
2023-03-10T06:53:15.292Z,471.00
2023-03-10T06:54:15.384Z,472.00
2023-03-10T06:55:15.520Z,472.00
2023-03-10T06:56:15.232Z,471.00
2023-03-10T06:57:15.275Z,473.00
2023-03-10T06:58:15.410Z,472.00
2023-03-10T06:59:15.944Z,474.00
2023-03-10T07:00:15.315Z,476.00
2023-03-10T07:01:15.318Z,478.00
2023-03-10T07:02:15.214Z,478.00
2023-03-10T07:03:15.212Z,478.00
2023-03-10T07:04:15.275Z,477.00
2023-03-10T07:05:15.243Z,473.00
2023-03-10T07:06:15.187Z,474.00
2023-03-10T07:07:15.209Z,473.00
2023-03-10T07:08:15.263Z,474.00
2023-03-10T07:09:15.266Z,476.00
2023-03-10T07:10:15.168Z,477.00
2023-03-10T07:11:15.178Z,480.00
2023-03-10T07:12:15.217Z,479.00
2023-03-10T07:13:15.283Z,480.00
2023-03-10T07:14:15.386Z,479.00
2023-03-10T07:15:15.399Z,481.00
2023-03-10T07:16:15.579Z,479.00
2023-03-10T07:17:15.451Z,479.00
2023-03-10T07:18:15.551Z,478.00
2023-03-10T07:19:15.581Z,480.00
2023-03-10T07:20:16.557Z,478.00
2023-03-10T07:21:15.586Z,478.00
2023-03-10T07:22:15.657Z,477.00
2023-03-10T07:23:15.718Z,477.00
2023-03-10T07:24:15.724Z,476.00
2023-03-10T07:25:15.800Z,474.00
2023-03-10T07:26:15.779Z,475.00
2023-03-10T07:28:35.871Z,472.00
2023-03-10T07:29:35.821Z,475.00
2023-03-10T07:30:35.907Z,475.00
2023-03-10T07:44:12.604Z,475.00
2023-03-10T07:56:15.768Z,472.00
2023-03-10T07:57:15.848Z,474.00
2023-03-10T07:58:16.409Z,476.00
2023-03-10T07:59:15.658Z,474.00
2023-03-10T08:00:15.653Z,477.00
2023-03-10T08:01:15.668Z,479.00
2023-03-10T08:23:10.586Z,472.00
2023-03-10T08:29:13.702Z,461.00
2023-03-10T08:30:13.793Z,465.00
2023-03-10T08:31:14.080Z,465.00
2023-03-10T08:37:12.478Z,462.00
2023-03-10T09:16:28.053Z,461.00
2023-03-10T09:36:04.962Z,470.00
2023-03-10T09:36:47.660Z,468.00
2023-03-10T09:43:47.565Z,473.00
2023-03-10T09:46:47.625Z,474.00
2023-03-10T11:19:38.364Z,467.00
2023-03-10T11:53:16.982Z,457.00
2023-03-10T12:20:41.287Z,450.00
2023-03-10T12:21:40.976Z,448.00
2023-03-10T12:22:40.369Z,449.00
2023-03-10T12:23:40.276Z,452.00
2023-03-10T12:24:40.765Z,452.00
2023-03-10T12:25:41.950Z,454.00
2023-03-10T12:26:44.059Z,457.00
2023-03-10T12:27:41.818Z,456.00
2023-03-10T12:28:40.489Z,457.00
2023-03-10T12:29:41.581Z,454.00
2023-03-10T12:30:41.049Z,455.00
2023-03-10T12:32:59.790Z,451.00
2023-03-10T12:33:59.939Z,455.00
2023-03-10T12:34:59.534Z,456.00
2023-03-10T12:36:00.294Z,453.00
2023-03-10T12:36:59.415Z,453.00
2023-03-10T12:37:59.340Z,454.00
2023-03-10T12:38:59.346Z,453.00
2023-03-10T12:39:59.440Z,453.00
2023-03-10T12:40:59.336Z,453.00
2023-03-10T12:41:59.315Z,452.00
2023-03-10T12:42:59.386Z,456.00
2023-03-10T12:43:59.267Z,456.00
2023-03-10T12:44:59.270Z,457.00
2023-03-10T12:45:59.290Z,460.00
2023-03-10T12:46:59.432Z,461.00
2023-03-10T12:47:59.302Z,459.00
2023-03-10T12:48:59.279Z,456.00
2023-03-10T12:49:59.606Z,454.00
2023-03-10T12:50:59.270Z,454.00
2023-03-10T12:51:59.213Z,452.00
2023-03-10T12:52:59.293Z,449.00
2023-03-10T12:53:59.267Z,448.00
2023-03-10T12:55:01.197Z,448.00
2023-03-10T12:58:38.152Z,438.00
2023-03-10T14:14:49.970Z,443.00
2023-03-10T14:17:11.848Z,439.00
2023-03-10T14:18:11.178Z,445.00
2023-03-10T14:19:11.262Z,446.00
2023-03-10T14:20:11.681Z,446.00
2023-03-10T14:21:11.086Z,451.00
2023-03-10T14:22:11.080Z,447.00
2023-03-10T14:23:11.081Z,447.00
2023-03-10T14:24:11.090Z,447.00
2023-03-10T14:28:30.297Z,437.00
2023-03-10T14:29:30.269Z,441.00
2023-03-10T14:37:40.702Z,441.00
2023-03-10T14:38:41.013Z,440.00
2023-03-10T14:39:40.516Z,439.00
2023-03-10T14:40:40.517Z,435.00
2023-03-10T14:41:40.524Z,435.00
2023-03-10T14:42:40.556Z,436.00
2023-03-10T14:43:40.496Z,435.00
2023-03-10T14:44:40.490Z,438.00
2023-03-10T14:45:41.440Z,438.00
2023-03-10T14:46:40.732Z,439.00
2023-03-10T14:47:40.673Z,438.00
2023-03-10T14:48:40.468Z,438.00
2023-03-10T14:49:40.483Z,441.00
2023-03-10T14:50:40.449Z,441.00
2023-03-10T14:51:40.450Z,439.00
2023-03-10T14:52:40.479Z,439.00
2023-03-10T14:53:40.404Z,439.00
2023-03-10T14:54:40.447Z,441.00
2023-03-10T14:55:40.427Z,440.00
2023-03-10T14:56:40.481Z,438.00
2023-03-10T14:57:40.438Z,435.00
2023-03-10T14:58:40.490Z,437.00
2023-03-10T14:59:40.707Z,437.00
2023-03-10T15:00:40.619Z,436.00
2023-03-10T15:01:40.635Z,436.00
2023-03-10T15:02:40.623Z,438.00
2023-03-10T15:15:41.061Z,431.00
2023-03-10T15:16:41.073Z,433.00
2023-03-10T15:17:41.048Z,432.00
2023-03-10T15:18:40.994Z,430.00
2023-03-10T15:19:41.047Z,429.00
2023-03-10T15:38:13.152Z,442.00
2023-03-10T16:28:36.694Z,438.00
2023-03-10T16:29:36.517Z,444.00
2023-03-10T16:30:36.781Z,444.00
2023-03-10T16:31:36.677Z,443.00
2023-03-10T16:32:36.432Z,448.00
2023-03-10T16:33:36.389Z,454.00
2023-03-10T16:34:36.356Z,454.00
2023-03-10T16:35:36.392Z,452.00
2023-03-10T16:36:36.453Z,450.00
2023-03-10T16:37:36.347Z,443.00
2023-03-10T16:38:36.390Z,443.00
2023-03-10T16:39:36.367Z,445.00
2023-03-10T16:45:56.048Z,462.00
2023-03-10T16:46:56.035Z,454.00
2023-03-10T16:47:55.715Z,446.00
2023-03-10T17:19:14.582Z,426.00
2023-03-10T17:44:53.401Z,447.00
2023-03-10T17:45:56.442Z,442.00
2023-03-10T18:04:51.300Z,438.00
2023-03-10T18:05:51.572Z,441.00
2023-03-10T18:06:51.186Z,442.00
2023-03-10T18:07:51.143Z,449.00
2023-03-10T18:08:51.173Z,455.00
2023-03-10T18:09:51.222Z,454.00
2023-03-10T18:10:51.145Z,457.00
2023-03-10T18:11:51.181Z,452.00
2023-03-10T18:12:51.180Z,451.00
2023-03-10T18:13:51.134Z,449.00
2023-03-10T18:14:51.980Z,450.00
2023-03-10T18:15:51.166Z,446.00
2023-03-10T18:16:51.126Z,444.00
2023-03-10T18:17:51.090Z,444.00
2023-03-10T18:18:51.097Z,443.00
2023-03-10T18:19:51.112Z,447.00
2023-03-10T18:20:51.096Z,449.00
2023-03-10T18:21:51.083Z,448.00
2023-03-10T18:22:51.079Z,454.00
2023-03-10T18:23:51.116Z,452.00
2023-03-10T18:24:51.065Z,453.00
2023-03-10T18:25:51.153Z,454.00
2023-03-10T18:26:51.043Z,455.00
2023-03-10T18:27:51.074Z,454.00
2023-03-10T18:28:51.048Z,451.00
2023-03-10T18:34:49.822Z,438.00
2023-03-10T18:35:49.600Z,438.00
2023-03-10T18:36:50.100Z,441.00
2023-03-10T18:37:49.486Z,439.00
2023-03-10T18:38:49.501Z,441.00
2023-03-10T18:39:49.507Z,441.00
2023-03-10T18:40:49.463Z,444.00
2023-03-10T18:41:49.560Z,445.00
2023-03-10T18:42:49.461Z,443.00
2023-03-10T18:43:49.478Z,445.00
2023-03-10T18:44:49.536Z,445.00
2023-03-10T18:45:49.357Z,445.00
2023-03-10T18:46:49.933Z,445.00
2023-03-10T19:15:44.740Z,446.00
2023-03-10T19:16:48.344Z,447.00
2023-03-10T19:17:48.556Z,445.00
2023-03-10T19:18:48.284Z,441.00
2023-03-10T19:19:48.252Z,444.00
2023-03-10T19:20:48.243Z,444.00
2023-03-10T19:21:48.236Z,445.00
2023-03-10T19:22:48.226Z,445.00
2023-03-10T19:23:48.192Z,445.00
2023-03-10T19:24:48.200Z,449.00
2023-03-10T19:41:47.240Z,451.00
2023-03-10T19:59:46.491Z,454.00
2023-03-10T20:00:46.296Z,452.00
2023-03-10T20:04:26.686Z,451.00
2023-03-10T20:12:54.997Z,442.00
2023-03-10T20:15:14.764Z,439.00
2023-03-10T20:16:15.240Z,439.00
2023-03-10T20:17:14.604Z,437.00
2023-03-10T20:19:14.664Z,441.00
2023-03-10T20:20:14.606Z,442.00
2023-03-10T20:21:14.592Z,444.00
2023-03-10T20:22:14.596Z,447.00
2023-03-10T20:23:14.607Z,449.00
2023-03-10T20:24:14.576Z,449.00
2023-03-10T20:25:14.595Z,448.00
2023-03-10T20:26:14.531Z,450.00
2023-03-10T20:35:48.035Z,442.00
2023-03-10T20:36:47.669Z,439.00
2023-03-10T20:37:47.783Z,439.00
2023-03-10T20:38:47.532Z,439.00
2023-03-10T20:39:47.540Z,441.00
2023-03-10T20:40:47.485Z,439.00
2023-03-10T20:41:47.544Z,439.00
2023-03-10T20:42:47.503Z,442.00
2023-03-10T20:43:47.476Z,445.00
2023-03-10T20:44:47.512Z,445.00
2023-03-10T20:45:47.525Z,445.00
2023-03-10T20:46:47.511Z,446.00
2023-03-10T20:47:47.441Z,444.00
2023-03-10T20:48:47.506Z,442.00
2023-03-10T21:33:46.932Z,436.00
2023-03-10T21:34:46.779Z,434.00
2023-03-10T21:35:46.903Z,435.00
2023-03-10T21:36:46.694Z,432.00
2023-03-10T21:39:53.377Z,433.00
2023-03-10T21:43:48.736Z,432.00
2023-03-10T23:03:11.160Z,455.00
2023-03-10T23:04:11.108Z,454.00
2023-03-10T23:05:11.120Z,452.00
2023-03-10T23:14:51.279Z,432.00
2023-03-10T23:15:50.999Z,427.00
2023-03-10T23:16:50.967Z,431.00
2023-03-10T23:17:51.001Z,430.00
2023-03-10T23:18:50.920Z,430.00
2023-03-10T23:19:50.941Z,431.00
2023-03-10T23:20:50.943Z,432.00
2023-03-10T23:21:50.956Z,433.00
2023-03-10T23:22:50.924Z,434.00
2023-03-10T23:23:50.922Z,436.00
2023-03-10T23:24:50.930Z,437.00
2023-03-10T23:25:50.944Z,437.00
2023-03-10T23:26:50.887Z,437.00
2023-03-10T23:27:50.895Z,436.00
2023-03-10T23:28:50.921Z,439.00
2023-03-10T23:29:50.853Z,443.00
2023-03-10T23:30:50.888Z,446.00
2023-03-10T23:31:50.918Z,450.00
2023-03-10T23:32:50.905Z,443.00
2023-03-10T23:33:50.848Z,438.00
2023-03-10T23:34:50.832Z,439.00
2023-03-10T23:35:50.826Z,438.00
2023-03-10T23:36:50.822Z,435.00
2023-03-10T23:37:50.829Z,430.00
2023-03-10T23:38:50.785Z,431.00
2023-03-10T23:40:50.768Z,436.00
2023-03-10T23:41:50.784Z,440.00
2023-03-10T23:42:50.782Z,438.00
2023-03-10T23:43:50.762Z,436.00
2023-03-10T23:44:50.755Z,438.00
2023-03-10T23:45:50.833Z,437.00
2023-03-10T23:46:50.770Z,438.00
2023-03-10T23:47:50.790Z,436.00
2023-03-10T23:48:50.714Z,436.00
2023-03-10T23:49:50.824Z,438.00
2023-03-10T23:50:50.744Z,438.00
2023-03-10T23:51:50.696Z,440.00
2023-03-10T23:52:50.714Z,444.00
2023-03-10T23:53:50.719Z,443.00
2023-03-10T23:54:50.671Z,445.00
2023-03-10T23:55:50.681Z,441.00
2023-03-10T23:56:50.683Z,445.00
2023-03-10T23:57:50.710Z,437.00
2023-03-10T23:58:50.667Z,437.00
2023-03-10T23:59:50.675Z,434.00
